createdAt,value
2022-11-24T00:01:19.074Z,15.85
2022-11-24T00:06:16.189Z,18.00
2022-11-24T00:11:15.599Z,17.40
2022-11-24T00:16:14.105Z,17.15
2022-11-24T00:21:12.014Z,17.80
2022-11-24T00:26:11.334Z,16.88
2022-11-24T00:31:17.413Z,16.25
2022-11-24T00:36:16.117Z,16.55
2022-11-24T00:41:13.806Z,16.58
2022-11-24T00:46:10.795Z,16.35
2022-11-24T00:51:10.102Z,19.33
2022-11-24T00:56:08.931Z,18.02
2022-11-24T01:01:07.442Z,18.20
2022-11-24T01:06:06.016Z,18.00
2022-11-24T01:11:12.506Z,17.90
2022-11-24T01:16:15.716Z,17.65
2022-11-24T01:21:13.414Z,19.00
2022-11-24T01:26:12.426Z,17.73
2022-11-24T01:31:10.741Z,18.15
2022-11-24T01:36:07.731Z,17.88
2022-11-24T01:41:06.789Z,17.77
2022-11-24T01:46:12.975Z,17.88
2022-11-24T01:51:13.817Z,17.23
2022-11-24T01:56:12.805Z,17.98
2022-11-24T02:01:11.435Z,18.02
2022-11-24T02:06:13.104Z,17.08
2022-11-24T02:11:10.122Z,15.77
2022-11-24T02:16:10.248Z,17.42
2022-11-24T02:21:09.616Z,16.85
2022-11-24T02:26:15.337Z,16.67
2022-11-24T02:31:13.676Z,17.50
2022-11-24T02:36:10.804Z,16.23
2022-11-24T02:41:11.199Z,17.05
2022-11-24T02:46:08.823Z,17.88
2022-11-24T02:51:06.541Z,15.40
2022-11-24T02:56:03.745Z,18.23
2022-11-24T03:01:00.510Z,18.15
2022-11-24T03:05:57.420Z,18.10
2022-11-24T03:10:55.239Z,18.48
2022-11-24T03:15:52.259Z,18.65
2022-11-24T03:20:49.179Z,18.83
2022-11-24T03:25:46.087Z,16.92
2022-11-24T03:30:43.761Z,19.05
2022-11-24T03:35:40.886Z,17.98
2022-11-24T03:40:37.796Z,18.60
2022-11-24T03:45:49.833Z,18.70
2022-11-24T03:50:53.948Z,19.73
2022-11-24T03:55:51.008Z,17.38
2022-11-24T04:00:49.119Z,18.50
2022-11-24T04:05:46.140Z,19.30
2022-11-24T04:10:44.033Z,16.85
2022-11-24T04:15:42.171Z,17.58
2022-11-24T04:20:39.979Z,17.77
2022-11-24T04:25:37.470Z,17.25
2022-11-24T04:30:37.953Z,16.40
2022-11-24T04:35:35.594Z,15.65
2022-11-24T04:40:32.648Z,15.07
2022-11-24T04:45:29.659Z,17.23
2022-11-24T04:50:27.487Z,14.20
2022-11-24T04:55:24.345Z,15.68
2022-11-24T05:00:21.539Z,14.48
2022-11-24T05:05:18.754Z,13.43
2022-11-24T05:10:40.565Z,13.60
2022-11-24T05:15:38.219Z,13.77
2022-11-24T05:20:35.622Z,14.15
2022-11-24T05:25:33.953Z,12.10
2022-11-24T05:31:05.337Z,13.68
2022-11-24T05:36:31.165Z,10.80
2022-11-24T05:41:28.626Z,9.98
2022-11-24T05:46:26.368Z,10.27
2022-11-24T05:51:24.862Z,9.60
2022-11-24T05:56:22.203Z,10.35
2022-11-24T06:01:19.775Z,8.82
2022-11-24T06:06:16.627Z,10.05
2022-11-24T06:11:19.533Z,8.85
2022-11-24T06:16:16.372Z,8.23
2022-11-24T06:21:14.067Z,8.95
2022-11-24T06:26:11.307Z,9.20
2022-11-24T06:31:09.340Z,8.00
2022-11-24T06:36:10.070Z,8.80
2022-11-24T06:41:11.658Z,9.07
2022-11-24T06:46:08.683Z,8.95
2022-11-24T06:51:07.550Z,9.05
2022-11-24T06:56:12.121Z,8.35
2022-11-24T07:01:15.909Z,7.90
2022-11-24T07:06:12.831Z,8.32
2022-11-24T07:11:12.667Z,9.18
2022-11-24T07:16:15.319Z,9.95
2022-11-24T07:21:12.623Z,9.40
2022-11-24T07:26:10.308Z,9.95
2022-11-24T07:31:07.829Z,9.38
2022-11-24T07:36:07.037Z,9.55
2022-11-24T07:41:06.878Z,9.55
2022-11-24T07:46:04.993Z,11.18
2022-11-24T07:51:02.797Z,11.30
2022-11-24T07:56:02.379Z,10.52
2022-11-24T08:00:59.802Z,12.23
2022-11-24T08:06:22.808Z,12.98
2022-11-24T08:11:18.395Z,10.05
2022-11-24T08:16:17.219Z,11.13
2022-11-24T08:21:14.466Z,9.65
2022-11-24T08:26:15.294Z,9.80
2022-11-24T08:31:15.048Z,10.18
2022-11-24T08:36:14.366Z,7.03
2022-11-24T08:41:14.054Z,6.93
2022-11-24T08:46:13.958Z,6.53
2022-11-24T08:51:13.219Z,6.35
2022-11-24T08:56:11.424Z,6.18
2022-11-24T09:01:09.754Z,7.57
2022-11-24T09:06:08.383Z,8.10
2022-11-24T09:11:07.340Z,9.27
2022-11-24T09:16:05.145Z,9.32
2022-11-24T09:21:10.006Z,9.88
2022-11-24T09:26:08.445Z,7.77
2022-11-24T09:31:07.404Z,8.43
2022-11-24T09:36:05.269Z,8.73
2022-11-24T09:41:49.264Z,7.07
2022-11-24T09:46:58.197Z,11.23
2022-11-24T09:51:56.179Z,9.77
2022-11-24T09:56:55.140Z,11.10
2022-11-24T10:01:53.792Z,12.57
2022-11-24T10:07:00.050Z,11.65
2022-11-24T10:12:12.694Z,11.73
2022-11-24T10:17:18.501Z,12.45
2022-11-24T10:22:31.036Z,12.98
2022-11-24T10:27:37.445Z,12.20
2022-11-24T10:32:40.056Z,13.88
2022-11-24T10:37:43.237Z,13.73
2022-11-24T10:42:42.099Z,12.95
2022-11-24T10:47:39.925Z,14.13
2022-11-24T10:52:41.089Z,14.80
2022-11-24T10:57:40.561Z,14.50
2022-11-24T11:02:39.367Z,15.02
2022-11-24T11:07:36.233Z,10.82
2022-11-24T11:12:43.960Z,4.97
2022-11-24T11:17:44.225Z,3.75
2022-11-24T11:22:44.090Z,2.95
2022-11-24T11:27:42.195Z,2.17
2022-11-24T11:38:11.621Z,1.73
2022-11-24T11:43:19.639Z,2.13
2022-11-24T11:48:32.464Z,2.05
2022-11-24T11:53:44.788Z,2.83
2022-11-24T11:59:12.231Z,3.25
2022-11-24T12:04:20.317Z,3.05
2022-11-24T12:09:27.721Z,3.50
2022-11-24T12:14:32.445Z,3.00
2022-11-24T12:19:50.010Z,3.60
2022-11-24T12:24:56.733Z,3.97
2022-11-24T12:30:09.457Z,3.97
2022-11-24T12:35:20.698Z,4.25
2022-11-24T12:40:31.629Z,4.35
2022-11-24T12:45:38.714Z,4.78
2022-11-24T12:50:38.194Z,5.40
2022-11-24T12:55:37.634Z,4.75
2022-11-24T13:00:42.605Z,5.28
2022-11-24T13:05:47.078Z,5.10
2022-11-24T13:10:55.806Z,5.28
2022-11-24T13:21:47.529Z,5.78
2022-11-24T13:26:47.683Z,5.35
2022-11-24T13:31:44.659Z,5.47
2022-11-24T13:36:54.491Z,5.82
2022-11-24T13:42:09.230Z,5.15
2022-11-24T13:47:31.808Z,5.85
2022-11-24T13:52:51.995Z,6.10
2022-11-24T13:57:51.323Z,5.03
2022-11-24T14:02:49.092Z,4.80
2022-11-24T14:07:49.331Z,4.97
2022-11-24T14:12:46.851Z,5.45
2022-11-24T14:17:43.668Z,5.75
2022-11-24T14:22:42.116Z,5.72
2022-11-24T14:27:39.543Z,6.25
2022-11-24T14:32:37.520Z,6.95
2022-11-24T14:37:34.644Z,7.30
2022-11-24T14:42:32.688Z,6.78
2022-11-24T14:47:32.399Z,7.75
2022-11-24T14:52:30.444Z,7.10
2022-11-24T14:57:32.110Z,7.50
2022-11-24T15:02:41.407Z,7.55
2022-11-24T15:07:41.114Z,7.45
2022-11-24T15:12:40.717Z,8.73
2022-11-24T15:17:41.146Z,7.45
2022-11-24T15:22:41.374Z,7.22
2022-11-24T15:27:38.191Z,6.85
2022-11-24T15:32:35.075Z,8.27
2022-11-24T15:37:34.222Z,8.23
2022-11-24T15:42:32.588Z,6.82
2022-11-24T15:47:29.579Z,6.63
2022-11-24T15:52:26.545Z,8.02
2022-11-24T15:57:23.921Z,7.47
2022-11-24T16:02:22.518Z,9.18
2022-11-24T16:07:19.600Z,8.45
2022-11-24T16:12:16.687Z,8.45
2022-11-24T16:17:13.716Z,8.88
2022-11-24T16:22:11.319Z,7.90
2022-11-24T16:27:08.299Z,7.85
2022-11-24T16:32:06.149Z,7.88
2022-11-24T16:37:03.660Z,8.70
2022-11-24T16:42:01.525Z,7.47
2022-11-24T16:46:58.561Z,7.93
2022-11-24T16:51:55.557Z,8.10
2022-11-24T16:56:52.668Z,8.02
2022-11-24T17:01:53.879Z,7.47
2022-11-24T17:06:51.458Z,8.75
2022-11-24T17:11:48.301Z,8.20
2022-11-24T17:16:45.327Z,8.65
2022-11-24T17:21:43.014Z,7.13
2022-11-24T17:26:44.737Z,7.13
2022-11-24T17:36:45.381Z,6.93
2022-11-24T17:41:42.388Z,7.40
2022-11-24T17:46:39.353Z,6.85
2022-11-24T17:51:36.294Z,7.40
2022-11-24T17:56:33.799Z,7.78
2022-11-24T18:01:31.707Z,7.30
2022-11-24T18:06:28.628Z,6.80
2022-11-24T18:11:31.368Z,6.05
2022-11-24T18:16:30.782Z,6.15
2022-11-24T18:21:28.322Z,5.35
2022-11-24T18:26:25.185Z,5.32
2022-11-24T18:31:22.279Z,6.30
2022-11-24T18:36:23.598Z,6.60
2022-11-24T18:41:23.937Z,5.68
2022-11-24T18:46:21.591Z,7.30
2022-11-24T18:51:19.608Z,5.80
2022-11-24T18:56:17.583Z,5.93
2022-11-24T19:01:16.201Z,6.55
2022-11-24T19:06:16.190Z,5.15
2022-11-24T19:11:18.670Z,5.50
2022-11-24T19:16:16.741Z,5.15
2022-11-24T19:21:13.708Z,5.22
2022-11-24T19:26:10.700Z,4.60
2022-11-24T19:31:10.928Z,4.90
2022-11-24T19:36:11.816Z,5.25
2022-11-24T19:41:11.864Z,6.05
2022-11-24T19:46:11.379Z,5.43
2022-11-24T19:51:10.704Z,6.15
2022-11-24T19:56:12.579Z,5.10
2022-11-24T20:01:13.107Z,5.50
2022-11-24T20:06:12.903Z,6.63
2022-11-24T20:11:12.327Z,5.63
2022-11-24T20:16:12.005Z,5.82
2022-11-24T20:21:10.239Z,6.22
2022-11-24T20:26:09.892Z,6.25
2022-11-24T20:31:09.849Z,4.75
2022-11-24T20:36:10.546Z,6.32
2022-11-24T20:41:09.608Z,5.85
2022-11-24T20:46:08.534Z,5.68
2022-11-24T20:51:12.007Z,5.22
2022-11-24T20:56:11.623Z,4.93
2022-11-24T21:01:10.875Z,4.88
2022-11-24T21:06:09.631Z,4.32
2022-11-24T21:11:08.528Z,5.03
2022-11-24T21:16:12.676Z,4.47
2022-11-24T21:21:11.039Z,4.50
2022-11-24T21:26:13.137Z,3.88
2022-11-24T21:31:15.260Z,4.50
2022-11-24T21:36:14.687Z,4.95
2022-11-24T21:41:13.323Z,4.60
2022-11-24T21:46:15.126Z,4.65
2022-11-24T21:51:14.979Z,3.88
2022-11-24T21:56:13.213Z,4.47
2022-11-24T22:01:11.245Z,4.35
2022-11-24T22:06:09.194Z,3.85
2022-11-24T22:11:11.174Z,4.45
2022-11-24T22:16:10.554Z,4.95
2022-11-24T22:21:10.426Z,4.93
2022-11-24T22:26:12.551Z,4.30
2022-11-24T22:31:12.526Z,4.07
2022-11-24T22:36:10.521Z,3.97
2022-11-24T22:41:10.201Z,3.85
2022-11-24T22:46:10.306Z,4.63
2022-11-24T22:51:08.822Z,4.03
2022-11-24T22:56:08.833Z,4.43
2022-11-24T23:01:06.356Z,3.72
2022-11-24T23:06:04.957Z,4.00
2022-11-24T23:11:03.882Z,4.03
2022-11-24T23:16:02.747Z,4.25
2022-11-24T23:21:05.774Z,4.05
2022-11-24T23:26:04.085Z,3.67
2022-11-24T23:31:03.299Z,3.92
2022-11-24T23:36:01.922Z,3.90
2022-11-24T23:40:59.949Z,4.40
2022-11-24T23:46:03.066Z,3.92
2022-11-24T23:51:04.522Z,4.60
2022-11-24T23:56:01.593Z,7.00
